createdAt,value
2023-01-08T00:02:26.211Z,21.57
2023-01-08T00:04:55.767Z,23.47
2023-01-08T00:07:23.361Z,22.10
2023-01-08T00:09:52.378Z,24.33
2023-01-08T00:12:20.129Z,21.53
2023-01-08T00:14:47.538Z,30.87
2023-01-08T00:17:15.018Z,23.57
2023-01-08T00:19:43.141Z,23.87
2023-01-08T00:22:11.995Z,20.83
2023-01-08T00:24:39.565Z,21.70
2023-01-08T00:27:07.004Z,24.03
2023-01-08T00:29:34.438Z,21.33
2023-01-08T00:32:02.021Z,25.50
2023-01-08T00:34:29.574Z,23.73
2023-01-08T00:36:57.070Z,23.73
2023-01-08T00:39:25.922Z,27.33
2023-01-08T00:41:53.404Z,27.87
2023-01-08T00:44:21.133Z,25.27
2023-01-08T00:46:48.650Z,24.13
2023-01-08T00:49:16.166Z,22.63
2023-01-08T00:51:43.744Z,23.20
2023-01-08T00:54:11.738Z,29.30
2023-01-08T00:56:40.626Z,32.33
2023-01-08T00:59:08.312Z,24.70
2023-01-08T01:01:36.073Z,25.33
2023-01-08T01:04:03.663Z,23.33
2023-01-08T01:06:31.187Z,25.63
2023-01-08T01:08:58.660Z,26.83
2023-01-08T01:11:27.649Z,24.73
2023-01-08T01:13:57.435Z,23.27
2023-01-08T01:16:25.023Z,25.47
2023-01-08T01:18:53.547Z,22.00
2023-01-08T01:21:22.918Z,26.00
2023-01-08T01:23:50.382Z,26.73
2023-01-08T01:26:18.335Z,26.77
2023-01-08T01:28:47.907Z,24.00
2023-01-08T01:31:17.470Z,22.83
2023-01-08T01:33:45.092Z,32.13
2023-01-08T01:36:13.037Z,26.20
2023-01-08T01:38:43.673Z,21.83
2023-01-08T01:41:19.134Z,35.80
2023-01-08T01:43:46.638Z,26.23
2023-01-08T01:46:24.909Z,22.60
2023-01-08T01:48:53.681Z,23.97
2023-01-08T01:51:21.693Z,25.30
2023-01-08T01:53:50.425Z,24.27
2023-01-08T01:56:17.845Z,22.83
2023-01-08T01:58:45.333Z,20.17
2023-01-08T02:01:13.477Z,20.50
2023-01-08T02:03:42.371Z,26.67
2023-01-08T02:06:16.440Z,22.03
2023-01-08T02:08:50.626Z,24.73
2023-01-08T02:11:23.475Z,32.20
2023-01-08T02:13:53.017Z,28.47
2023-01-08T02:16:24.852Z,24.33
2023-01-08T02:18:56.410Z,21.00
2023-01-08T02:21:30.146Z,22.67
2023-01-08T02:24:02.094Z,20.63
2023-01-08T02:26:31.314Z,15.30
2023-01-08T02:29:00.741Z,17.70
2023-01-08T02:31:29.552Z,16.13
2023-01-08T02:33:57.214Z,19.37
2023-01-08T02:36:31.346Z,22.00
2023-01-08T02:39:02.742Z,19.10
2023-01-08T02:41:34.337Z,15.63
2023-01-08T02:44:02.071Z,19.70
2023-01-08T02:46:32.188Z,17.63
2023-01-08T02:49:02.650Z,14.30
2023-01-08T02:51:31.881Z,17.37
2023-01-08T02:54:00.673Z,22.27
2023-01-08T02:56:30.872Z,19.13
2023-01-08T02:59:00.699Z,17.77
2023-01-08T03:01:28.874Z,18.87
2023-01-08T03:03:58.065Z,16.93
2023-01-08T03:06:26.369Z,22.33
2023-01-08T03:08:54.721Z,19.80
2023-01-08T03:11:23.284Z,14.40
2023-01-08T03:13:52.192Z,17.47
2023-01-08T03:16:24.113Z,14.23
2023-01-08T03:18:53.072Z,16.87
2023-01-08T03:21:22.070Z,16.67
2023-01-08T03:23:49.989Z,16.07
2023-01-08T03:26:19.748Z,16.07
2023-01-08T03:28:48.376Z,15.87
2023-01-08T03:31:16.958Z,18.27
2023-01-08T03:33:46.359Z,17.10
2023-01-08T03:36:15.545Z,15.20
2023-01-08T03:38:46.063Z,13.87
2023-01-08T03:41:14.753Z,16.13
2023-01-08T03:43:42.278Z,14.60
2023-01-08T03:46:11.133Z,13.47
2023-01-08T03:48:39.029Z,15.80
2023-01-08T03:51:10.501Z,15.23
2023-01-08T03:53:39.719Z,17.30
2023-01-08T03:56:07.597Z,13.03
2023-01-08T03:58:35.501Z,14.10
2023-01-08T04:01:03.086Z,16.03
2023-01-08T04:03:30.507Z,14.43
2023-01-08T04:06:00.118Z,16.17
2023-01-08T04:08:29.186Z,15.27
2023-01-08T04:10:56.669Z,17.37
2023-01-08T04:13:24.149Z,16.27
2023-01-08T04:15:52.107Z,12.40
2023-01-08T04:18:19.744Z,14.10
2023-01-08T04:20:47.633Z,12.77
2023-01-08T04:23:15.559Z,15.87
2023-01-08T04:25:44.374Z,14.50
2023-01-08T04:28:11.855Z,14.70
2023-01-08T04:30:39.436Z,14.57
2023-01-08T04:33:06.900Z,14.07
2023-01-08T04:35:34.369Z,15.27
2023-01-08T04:38:01.822Z,14.90
2023-01-08T04:40:29.309Z,15.10
2023-01-08T04:42:58.123Z,14.93
2023-01-08T04:45:25.696Z,12.53
2023-01-08T04:47:56.347Z,14.13
2023-01-08T04:50:23.898Z,9.73
2023-01-08T04:52:51.262Z,13.60
2023-01-08T04:55:18.740Z,12.83
2023-01-08T04:57:46.211Z,13.03
2023-01-08T05:00:15.849Z,13.33
2023-01-08T05:02:43.485Z,11.17
2023-01-08T05:05:11.175Z,12.53
2023-01-08T05:07:40.554Z,11.10
2023-01-08T05:10:08.618Z,11.73
2023-01-08T05:12:36.079Z,14.03
2023-01-08T05:15:03.498Z,14.43
2023-01-08T05:17:32.280Z,10.63
2023-01-08T05:19:59.960Z,15.23
2023-01-08T05:22:27.407Z,8.97
2023-01-08T05:24:54.967Z,11.67
2023-01-08T05:27:22.610Z,10.60
2023-01-08T05:29:51.472Z,9.50
2023-01-08T05:32:19.644Z,11.63
2023-01-08T05:34:48.473Z,14.20
2023-01-08T05:37:15.902Z,13.50
2023-01-08T05:39:43.400Z,11.37
2023-01-08T05:42:10.922Z,10.67
2023-01-08T05:44:38.392Z,11.53
2023-01-08T05:47:05.953Z,11.77
2023-01-08T05:49:33.380Z,10.03
2023-01-08T05:52:02.333Z,13.27
2023-01-08T05:54:29.760Z,9.77
2023-01-08T05:56:57.234Z,6.90
2023-01-08T05:59:24.714Z,8.93
2023-01-08T06:01:52.282Z,9.67
2023-01-08T06:04:20.014Z,6.23
2023-01-08T06:06:47.554Z,7.37
2023-01-08T06:09:16.387Z,4.40
2023-01-08T06:11:43.818Z,5.93
2023-01-08T06:14:11.307Z,3.83
2023-01-08T06:16:38.754Z,4.18
2023-01-08T06:19:06.187Z,5.30
2023-01-08T06:21:33.561Z,3.33
2023-01-08T06:24:01.087Z,4.95
2023-01-08T06:26:29.995Z,2.63
2023-01-08T06:28:57.441Z,2.03
2023-01-08T06:31:24.957Z,4.05
2023-01-08T06:33:52.416Z,2.00
2023-01-08T06:36:20.198Z,2.80
2023-01-08T06:38:47.599Z,1.92
2023-01-08T06:41:14.990Z,2.10
2023-01-08T06:43:46.503Z,1.77
2023-01-08T06:46:14.732Z,2.05
2023-01-08T06:48:42.259Z,2.17
2023-01-08T06:51:09.733Z,2.05
2023-01-08T06:53:39.302Z,1.35
2023-01-08T06:56:09.357Z,1.50
2023-01-08T06:58:39.488Z,1.42
2023-01-08T07:01:13.526Z,1.23
2023-01-08T07:03:41.275Z,1.77
2023-01-08T07:06:10.993Z,2.30
2023-01-08T07:08:38.491Z,2.80
2023-01-08T07:11:06.202Z,3.10
2023-01-08T07:13:33.648Z,5.07
2023-01-08T07:16:05.783Z,3.70
2023-01-08T07:18:34.792Z,6.40
2023-01-08T07:21:02.529Z,4.63
2023-01-08T07:23:30.045Z,4.15
2023-01-08T07:26:00.629Z,3.42
2023-01-08T07:28:28.154Z,3.35
2023-01-08T07:30:55.847Z,3.95
2023-01-08T07:33:23.618Z,3.75
2023-01-08T07:35:54.294Z,4.88
2023-01-08T07:38:22.012Z,3.72
2023-01-08T07:40:49.517Z,2.75
2023-01-08T07:43:17.006Z,2.50
2023-01-08T07:45:44.487Z,2.80
2023-01-08T07:48:15.646Z,3.40
2023-01-08T07:50:43.808Z,3.85
2023-01-08T07:53:13.511Z,5.63
2023-01-08T07:55:41.098Z,2.20
2023-01-08T07:58:09.935Z,5.50
2023-01-08T08:00:39.514Z,2.33
2023-01-08T08:03:07.647Z,1.80
2023-01-08T08:05:35.448Z,2.70
2023-01-08T08:08:03.140Z,2.92
2023-01-08T08:10:31.958Z,3.90
2023-01-08T08:13:01.031Z,2.30
2023-01-08T08:15:28.596Z,2.65
2023-01-08T08:17:56.095Z,2.10
2023-01-08T08:20:23.574Z,2.22
2023-01-08T08:22:51.076Z,3.65
2023-01-08T08:25:18.767Z,1.90
2023-01-08T08:27:47.608Z,2.58
2023-01-08T08:30:15.380Z,2.45
2023-01-08T08:32:43.099Z,2.95
2023-01-08T08:35:10.917Z,2.92
2023-01-08T08:37:38.381Z,2.83
2023-01-08T08:40:06.235Z,1.90
2023-01-08T08:42:33.674Z,2.70
2023-01-08T08:45:02.434Z,2.30
2023-01-08T08:47:29.954Z,3.25
2023-01-08T08:49:57.371Z,4.05
2023-01-08T08:52:24.955Z,2.47
2023-01-08T08:54:52.440Z,3.08
2023-01-08T08:57:20.060Z,5.78
2023-01-08T08:59:47.689Z,3.97
2023-01-08T09:02:16.686Z,2.35
2023-01-08T09:04:44.450Z,5.85
2023-01-08T09:07:11.978Z,3.30
2023-01-08T09:09:39.557Z,2.58
2023-01-08T09:12:07.615Z,2.00
2023-01-08T09:14:35.081Z,2.10
2023-01-08T09:17:02.530Z,2.72
2023-01-08T09:19:31.408Z,3.13
2023-01-08T09:21:58.905Z,5.78
2023-01-08T09:24:26.396Z,2.20
2023-01-08T09:26:54.255Z,3.25
2023-01-08T09:29:21.819Z,2.35
2023-01-08T09:31:49.412Z,2.60
2023-01-08T09:34:17.073Z,2.83
2023-01-08T09:36:48.431Z,7.40
2023-01-08T09:39:15.938Z,3.05
2023-01-08T09:41:44.907Z,2.85
2023-01-08T09:44:15.705Z,2.05
2023-01-08T09:46:43.612Z,3.58
2023-01-08T09:55:53.634Z,2.83
2023-01-08T09:58:34.266Z,2.60
2023-01-08T10:01:02.519Z,2.03
2023-01-08T10:03:31.534Z,2.55
2023-01-08T10:05:59.191Z,2.95
2023-01-08T10:08:26.958Z,2.20
2023-01-08T10:10:55.942Z,3.08
2023-01-08T10:13:24.897Z,3.83
2023-01-08T10:15:52.759Z,2.85
2023-01-08T10:18:20.722Z,3.35
2023-01-08T10:20:48.223Z,2.53
2023-01-08T10:23:16.762Z,2.70
2023-01-08T10:25:52.404Z,2.42
2023-01-08T10:28:25.323Z,2.78
2023-01-08T10:30:53.825Z,5.00
2023-01-08T10:33:22.673Z,2.20
2023-01-08T10:35:54.844Z,2.65
2023-01-08T10:38:25.582Z,5.38
2023-01-08T10:40:53.315Z,2.65
2023-01-08T10:43:23.581Z,2.35
2023-01-08T10:45:59.262Z,2.17
2023-01-08T10:48:29.807Z,1.80
2023-01-08T10:51:06.911Z,2.85
2023-01-08T10:53:34.757Z,1.95
2023-01-08T10:56:03.078Z,2.33
2023-01-08T10:58:41.525Z,3.40
2023-01-08T11:01:13.524Z,2.53
2023-01-08T11:03:41.637Z,1.30
2023-01-08T11:06:13.546Z,2.58
2023-01-08T11:08:41.282Z,1.83
2023-01-08T11:11:09.517Z,1.75
2023-01-08T11:13:39.077Z,1.70
2023-01-08T11:16:08.257Z,1.60
2023-01-08T11:18:44.151Z,1.40
2023-01-08T11:21:19.626Z,8.75
2023-01-08T11:23:48.124Z,3.65
2023-01-08T11:26:16.889Z,3.33
2023-01-08T11:28:49.554Z,1.52
2023-01-08T11:31:20.320Z,1.70
2023-01-08T11:33:48.838Z,2.88
2023-01-08T11:36:22.482Z,3.28
2023-01-08T11:38:50.044Z,1.80
2023-01-08T11:41:26.957Z,1.98
2023-01-08T11:44:03.359Z,1.63
2023-01-08T11:46:34.957Z,1.25
2023-01-08T11:49:12.805Z,1.10
2023-01-08T11:51:53.429Z,2.30
2023-01-08T11:54:27.311Z,3.95
2023-01-08T11:57:02.293Z,2.58
2023-01-08T11:59:35.153Z,2.45
2023-01-08T12:02:06.468Z,2.20
2023-01-08T12:04:51.186Z,2.53
2023-01-08T12:07:20.649Z,1.90
2023-01-08T12:09:51.690Z,1.20
2023-01-08T12:12:25.328Z,1.20
2023-01-08T12:15:05.300Z,1.08
2023-01-08T12:17:41.418Z,1.35
2023-01-08T12:20:16.040Z,1.10
2023-01-08T12:22:46.514Z,1.92
2023-01-08T12:25:23.225Z,4.90
2023-01-08T12:27:57.391Z,10.20
2023-01-08T12:30:30.392Z,7.53
2023-01-08T12:32:59.614Z,7.57
2023-01-08T12:35:29.290Z,2.22
2023-01-08T12:37:59.094Z,3.58
2023-01-08T12:40:29.329Z,4.75
2023-01-08T12:43:03.095Z,4.97
2023-01-08T12:45:36.866Z,4.18
2023-01-08T12:48:08.080Z,2.50
2023-01-08T12:50:40.056Z,1.98
2023-01-08T12:53:10.432Z,1.88
2023-01-08T12:55:44.797Z,1.50
2023-01-08T12:58:18.291Z,2.03
2023-01-08T13:00:52.541Z,1.83
2023-01-08T13:03:22.717Z,1.40
2023-01-08T13:05:50.527Z,1.40
2023-01-08T13:08:25.575Z,1.30
2023-01-08T13:10:55.124Z,1.30
2023-01-08T13:13:31.196Z,1.25
2023-01-08T13:16:15.314Z,1.10
2023-01-08T13:19:05.461Z,1.30
2023-01-08T13:21:37.512Z,1.15
2023-01-08T13:24:22.307Z,1.20
2023-01-08T13:26:49.987Z,1.30
2023-01-08T13:29:25.831Z,1.40
2023-01-08T13:31:54.915Z,1.50
2023-01-08T13:34:24.165Z,1.50
2023-01-08T13:37:00.562Z,1.20
2023-01-08T13:39:33.714Z,1.27
2023-01-08T13:42:09.069Z,1.05
2023-01-08T13:44:41.098Z,1.05
2023-01-08T13:47:18.191Z,1.15
2023-01-08T13:49:46.727Z,3.80
2023-01-08T13:52:28.656Z,1.40
2023-01-08T13:54:56.424Z,1.35
2023-01-08T13:57:24.259Z,1.42
2023-01-08T13:59:56.612Z,2.42
2023-01-08T14:02:29.783Z,1.50
2023-01-08T14:04:57.934Z,1.20
2023-01-08T14:07:25.986Z,1.90
2023-01-08T14:09:54.119Z,1.40
2023-01-08T14:12:23.071Z,1.90
2023-01-08T14:14:52.119Z,1.60
2023-01-08T14:17:21.206Z,1.40
2023-01-08T14:19:50.352Z,2.25
2023-01-08T14:22:20.105Z,1.55
2023-01-08T14:24:51.043Z,1.20
2023-01-08T14:27:22.711Z,1.73
2023-01-08T14:29:50.512Z,1.50
2023-01-08T14:32:19.650Z,1.40
2023-01-08T14:34:48.079Z,1.90
2023-01-08T14:37:17.825Z,1.80
2023-01-08T14:39:46.356Z,2.05
2023-01-08T14:42:33.988Z,5.00
2023-01-08T14:45:07.252Z,2.53
2023-01-08T14:47:37.942Z,4.53
2023-01-08T14:50:06.275Z,5.32
2023-01-08T14:52:35.989Z,4.43
2023-01-08T14:55:04.738Z,6.00
2023-01-08T14:57:33.233Z,6.22
2023-01-08T15:00:02.482Z,5.85
2023-01-08T15:02:31.440Z,6.25
2023-01-08T15:05:02.753Z,4.55
2023-01-08T15:07:30.436Z,3.90
2023-01-08T15:10:06.142Z,7.82
2023-01-08T15:12:33.819Z,7.20
2023-01-08T15:15:10.298Z,3.63
2023-01-08T15:17:38.020Z,6.72
2023-01-08T15:20:06.879Z,5.30
2023-01-08T15:22:36.476Z,6.35
2023-01-08T15:25:06.930Z,8.10
2023-01-08T15:27:37.047Z,4.32
2023-01-08T15:30:06.572Z,7.18
2023-01-08T15:32:37.221Z,7.72
2023-01-08T15:35:14.145Z,8.00
2023-01-08T15:37:42.950Z,6.60
2023-01-08T15:40:12.905Z,7.28
2023-01-08T15:42:58.611Z,5.47
2023-01-08T15:45:28.827Z,5.43
2023-01-08T15:47:56.508Z,9.85
2023-01-08T15:50:24.650Z,15.02
2023-01-08T15:52:56.582Z,6.38
2023-01-08T15:55:26.380Z,6.55
2023-01-08T15:57:55.335Z,8.73
2023-01-08T16:00:25.673Z,10.23
2023-01-08T16:02:54.665Z,9.45
2023-01-08T16:05:23.894Z,18.25
2023-01-08T16:07:51.638Z,11.80
2023-01-08T16:10:19.428Z,10.85
2023-01-08T16:12:48.486Z,9.70
2023-01-08T16:15:16.820Z,10.23
2023-01-08T16:17:45.160Z,9.25
2023-01-08T16:20:13.321Z,21.15
2023-01-08T16:22:41.159Z,16.63
2023-01-08T16:25:09.377Z,13.98
2023-01-08T16:27:38.437Z,14.60
2023-01-08T16:30:09.171Z,12.95
2023-01-08T16:32:39.277Z,14.00
2023-01-08T16:35:07.680Z,13.30
2023-01-08T16:37:35.402Z,13.55
2023-01-08T16:40:27.693Z,14.13
2023-01-08T16:42:56.888Z,11.48
2023-01-08T16:45:26.629Z,13.73
2023-01-08T16:47:54.316Z,18.15
2023-01-08T16:50:22.084Z,14.13
2023-01-08T16:52:50.880Z,13.25
2023-01-08T16:55:18.757Z,14.50
2023-01-08T16:57:46.593Z,15.27
2023-01-08T17:00:14.631Z,20.23
2023-01-08T17:02:43.730Z,20.48
2023-01-08T17:05:11.999Z,22.08
2023-01-08T17:07:40.048Z,15.85
2023-01-08T17:10:08.158Z,17.42
2023-01-08T17:12:38.506Z,17.45
2023-01-08T17:15:06.672Z,16.95
2023-01-08T17:17:34.246Z,22.35
2023-01-08T17:20:03.298Z,23.83
2023-01-08T17:22:35.359Z,19.98
2023-01-08T17:25:03.172Z,18.17
2023-01-08T17:27:30.758Z,35.60
2023-01-08T17:30:04.713Z,32.20
2023-01-08T17:32:32.271Z,27.73
2023-01-08T17:35:01.990Z,20.83
2023-01-08T17:37:31.741Z,20.15
2023-01-08T17:40:00.123Z,22.65
2023-01-08T17:42:27.765Z,38.33
2023-01-08T17:44:57.147Z,42.35
2023-01-08T17:47:25.115Z,36.88
2023-01-08T17:49:53.042Z,27.35
2023-01-08T17:52:21.221Z,22.98
2023-01-08T17:54:50.486Z,23.42
2023-01-08T17:57:18.369Z,23.42
2023-01-08T17:59:46.153Z,25.95
2023-01-08T18:02:16.054Z,27.48
2023-01-08T18:04:45.564Z,24.08
2023-01-08T18:07:13.344Z,23.90
2023-01-08T18:09:41.146Z,22.38
2023-01-08T18:12:10.268Z,23.13
2023-01-08T18:14:39.879Z,26.48
2023-01-08T18:17:07.571Z,23.02
2023-01-08T18:19:35.210Z,22.00
2023-01-08T18:22:02.867Z,18.30
2023-01-08T18:24:30.530Z,23.88
2023-01-08T18:26:59.395Z,20.25
2023-01-08T18:29:28.477Z,22.33
2023-01-08T18:31:56.070Z,18.27
2023-01-08T18:34:23.690Z,17.90
2023-01-08T18:36:51.301Z,18.27
2023-01-08T18:39:18.908Z,18.15
2023-01-08T18:42:04.159Z,22.73
2023-01-08T18:44:33.124Z,18.20
2023-01-08T18:47:00.971Z,18.52
2023-01-08T18:49:28.585Z,17.75
2023-01-08T18:51:56.330Z,24.58
2023-01-08T18:54:24.332Z,20.33
2023-01-08T18:56:53.761Z,24.73
2023-01-08T18:59:21.383Z,22.25
2023-01-08T19:01:52.429Z,22.73
2023-01-08T19:04:20.277Z,17.60
2023-01-08T19:06:47.975Z,21.00
2023-01-08T19:09:16.219Z,18.48
2023-01-08T19:11:43.870Z,20.95
2023-01-08T19:14:12.463Z,14.95
2023-01-08T19:16:40.211Z,21.30
2023-01-08T19:19:09.471Z,20.45
2023-01-08T19:21:37.274Z,19.92
2023-01-08T19:24:05.245Z,17.67
2023-01-08T19:26:32.952Z,23.40
2023-01-08T19:29:00.522Z,18.20
2023-01-08T19:31:28.144Z,21.90
2023-01-08T19:33:58.749Z,21.33
2023-01-08T19:36:28.119Z,20.90
2023-01-08T19:38:56.180Z,24.90
2023-01-08T19:41:41.050Z,23.17
2023-01-08T19:44:08.860Z,21.98
2023-01-08T19:46:36.956Z,23.00
2023-01-08T19:49:05.190Z,20.95
2023-01-08T19:51:34.478Z,16.75
2023-01-08T19:54:02.330Z,20.85
2023-01-08T19:56:30.435Z,15.00
2023-01-08T19:58:58.545Z,16.35
2023-01-08T20:01:30.371Z,19.83
2023-01-08T20:03:58.211Z,17.65
2023-01-08T20:06:26.761Z,19.20
2023-01-08T20:08:58.075Z,16.48
2023-01-08T20:11:25.939Z,15.30
2023-01-08T20:13:55.458Z,15.77
2023-01-08T20:16:23.952Z,18.15
2023-01-08T20:18:51.495Z,18.40
2023-01-08T20:21:20.975Z,15.90
2023-01-08T20:23:48.719Z,15.93
2023-01-08T20:26:18.742Z,16.58
2023-01-08T20:28:46.867Z,15.00
2023-01-08T20:31:15.744Z,14.82
2023-01-08T20:33:57.558Z,16.27
2023-01-08T20:36:27.681Z,20.33
2023-01-08T20:38:56.503Z,17.92
2023-01-08T20:41:26.501Z,15.55
2023-01-08T20:44:06.691Z,15.80
2023-01-08T20:46:35.228Z,15.05
2023-01-08T20:49:04.023Z,14.52
2023-01-08T20:51:32.053Z,15.57
2023-01-08T20:54:01.032Z,10.60
2023-01-08T20:56:30.027Z,9.25
2023-01-08T20:58:58.553Z,8.93
2023-01-08T21:01:28.069Z,9.50
2023-01-08T21:03:57.320Z,12.90
2023-01-08T21:06:25.795Z,21.02
2023-01-08T21:08:54.349Z,17.23
2023-01-08T21:11:22.454Z,16.88
2023-01-08T21:13:52.079Z,16.65
2023-01-08T21:16:22.798Z,21.15
2023-01-08T21:18:51.000Z,19.27
2023-01-08T21:21:19.231Z,22.08
2023-01-08T21:23:47.592Z,18.73
2023-01-08T21:26:15.491Z,18.90
2023-01-08T21:28:43.519Z,19.98
2023-01-08T21:33:41.939Z,18.02
2023-01-08T21:36:11.114Z,17.48
2023-01-08T21:38:38.845Z,20.40
2023-01-08T21:41:07.284Z,18.65
2023-01-08T21:43:52.579Z,23.17
2023-01-08T21:46:20.180Z,20.05
2023-01-08T21:48:51.499Z,20.55
2023-01-08T21:51:37.304Z,20.20
2023-01-08T21:54:05.217Z,21.27
2023-01-08T21:56:32.775Z,12.60
2023-01-08T21:59:00.534Z,15.95
2023-01-08T22:01:28.320Z,17.58
2023-01-08T22:03:57.313Z,16.77
2023-01-08T22:06:24.859Z,25.67
2023-01-08T22:08:56.248Z,22.83
2023-01-08T22:11:24.527Z,19.55
2023-01-08T22:13:52.151Z,21.40
2023-01-08T22:16:19.759Z,24.20
2023-01-08T22:18:47.339Z,18.50
2023-01-08T22:21:16.372Z,23.52
2023-01-08T22:23:43.945Z,19.45
2023-01-08T22:26:13.785Z,15.48
2023-01-08T22:28:42.298Z,17.48
2023-01-08T22:31:10.735Z,19.02
2023-01-08T22:33:39.665Z,18.77
2023-01-08T22:36:09.095Z,19.10
2023-01-08T22:38:38.417Z,14.85
2023-01-08T22:41:06.034Z,14.70
2023-01-08T22:43:33.565Z,11.45
2023-01-08T22:46:01.192Z,12.32
2023-01-08T22:48:28.774Z,13.57
2023-01-08T22:50:56.336Z,12.32
2023-01-08T22:53:23.880Z,11.73
2023-01-08T22:55:52.821Z,13.45
2023-01-08T22:58:20.433Z,18.23
2023-01-08T23:00:48.080Z,15.00
2023-01-08T23:03:15.659Z,14.13
2023-01-08T23:05:43.209Z,17.85
2023-01-08T23:08:11.167Z,16.02
2023-01-08T23:10:39.021Z,13.93
2023-01-08T23:13:07.956Z,13.18
2023-01-08T23:15:35.532Z,14.77
2023-01-08T23:18:03.237Z,13.27
2023-01-08T23:20:30.879Z,15.80
2023-01-08T23:22:58.633Z,13.88
2023-01-08T23:25:27.804Z,12.82
2023-01-08T23:27:55.403Z,15.18
2023-01-08T23:30:24.388Z,15.05
2023-01-08T23:32:52.756Z,18.05
2023-01-08T23:35:20.316Z,14.15
2023-01-08T23:37:48.079Z,14.98
2023-01-08T23:40:15.943Z,13.13
2023-01-08T23:42:43.584Z,14.95
2023-01-08T23:45:11.641Z,14.15
2023-01-08T23:47:40.652Z,12.18
2023-01-08T23:50:09.233Z,12.77
2023-01-08T23:52:36.931Z,10.05
2023-01-08T23:55:04.727Z,9.82
2023-01-08T23:57:32.282Z,9.90
2023-01-08T23:59:59.894Z,10.60
